Time;durP1;ratioP1;P1;durP2;ratioP2;P2;SDS_P1;SDS_P2;PMS_P1;PMS_P2;Temp;Humidity;BMP_temperature;BMP_pressure;BME280_temperature;BME280_humidity;BME280_pressure;Samples;Min_cycle;Max_cycle;Signal;HPM_P1;HPM_P2
2022/09/11 00:01:12;;;;;;;33.53;20.33;;;;;;;12.71;100.00;101923.84;5073203;28;20423;-85
2022/09/11 00:03:39;;;;;;;24.95;16.50;;;;;;;12.76;100.00;101929.66;5056639;28;20037;-88
2022/09/11 00:06:09;;;;;;;22.58;16.25;;;;;;;12.80;100.00;101919.56;5055462;28;20094;-89
2022/09/11 00:08:36;;;;;;;24.48;16.75;;;;;;;12.85;100.00;101928.03;5073424;28;20385;-88
2022/09/11 00:11:10;;;;;;;34.33;22.88;;;;;;;12.95;100.00;101920.13;5073012;28;20031;-88
2022/09/11 00:13:37;;;;;;;35.83;23.25;;;;;;;13.05;100.00;101929.06;5073684;28;20334;-88
2022/09/11 00:16:05;;;;;;;44.00;24.67;;;;;;;13.14;100.00;101927.44;5073696;28;20033;-88
2022/09/11 00:18:34;;;;;;;36.00;23.05;;;;;;;13.20;100.00;101921.59;5073026;28;20056;-86
2022/09/11 00:21:01;;;;;;;37.70;22.38;;;;;;;13.23;100.00;101922.16;5055259;28;20020;-88
2022/09/11 00:23:26;;;;;;;33.22;20.85;;;;;;;13.26;100.00;101928.22;5073060;28;20038;-88
2022/09/11 00:25:52;;;;;;;33.70;21.90;;;;;;;13.25;100.00;101930.03;5055203;28;20418;-88
2022/09/11 00:28:27;;;;;;;36.38;22.80;;;;;;;13.30;100.00;101937.66;5073279;28;20476;-88
2022/09/11 00:31:01;;;;;;;34.63;22.63;;;;;;;13.31;100.00;101932.19;5055273;28;20376;-89
2022/09/11 00:33:27;;;;;;;35.60;22.35;;;;;;;13.33;100.00;101934.72;5073047;28;20036;-88
2022/09/11 00:35:57;;;;;;;37.70;23.80;;;;;;;13.35;100.00;101936.34;5072937;28;20028;-87
2022/09/11 00:38:27;;;;;;;41.80;23.38;;;;;;;13.36;100.00;101935.38;5072958;28;20071;-87
2022/09/11 00:40:53;;;;;;;35.00;22.92;;;;;;;13.37;100.00;101931.69;5055077;28;20602;-87
2022/09/11 00:43:19;;;;;;;36.20;23.95;;;;;;;13.36;100.00;101927.34;5073406;28;20164;-86
2022/09/11 00:45:48;;;;;;;35.08;21.95;;;;;;;13.38;100.00;101928.06;5072612;28;20060;-87
2022/09/11 00:48:19;;;;;;;38.10;23.33;;;;;;;13.37;100.00;101933.53;5072704;28;20457;-86
2022/09/11 00:50:47;;;;;;;34.60;21.83;;;;;;;13.33;100.00;101926.72;5072499;28;20115;-86
2022/09/11 00:53:16;;;;;;;38.20;23.27;;;;;;;13.28;100.00;101926.28;5055473;28;20361;-87
2022/09/11 00:55:46;;;;;;;34.72;21.02;;;;;;;13.23;100.00;101926.66;5055693;28;20035;-87
2022/09/11 00:58:17;;;;;;;33.63;20.70;;;;;;;13.16;100.00;101920.97;5072386;28;20174;-87
2022/09/11 01:00:44;;;;;;;38.95;22.25;;;;;;;13.12;100.00;101918.69;5073647;28;20111;-87
2022/09/11 01:03:10;;;;;;;34.03;21.08;;;;;;;13.07;100.00;101919.09;5076557;28;20457;-86
2022/09/11 01:05:40;;;;;;;32.45;19.95;;;;;;;13.01;100.00;101925.78;5077092;28;20338;-87
2022/09/11 01:08:09;;;;;;;32.28;20.83;;;;;;;12.97;100.00;101928.84;5077152;28;20029;-87
2022/09/11 01:11:12;;;;;;;35.72;21.83;;;;;;;12.93;100.00;101933.59;5076622;28;20032;-87
2022/09/11 01:13:51;;;;;;;40.38;22.00;;;;;;;12.86;100.00;101925.25;5058199;28;20086;-87
2022/09/11 01:16:27;;;;;;;36.72;21.30;;;;;;;12.84;100.00;101929.88;5076129;28;20020;-87
2022/09/11 01:19:03;;;;;;;36.28;21.00;;;;;;;12.81;100.00;101931.97;5058499;28;20025;-87
2022/09/11 01:21:43;;;;;;;36.70;20.65;;;;;;;12.79;100.00;101936.56;5076336;28;20376;-86
2022/09/11 01:24:30;;;;;;;34.45;20.30;;;;;;;12.75;100.00;101933.31;5076158;28;20085;-86
2022/09/11 01:27:14;;;;;;;39.80;21.85;;;;;;;12.73;100.00;101929.06;5057868;28;20457;-87
2022/09/11 01:29:46;;;;;;;41.33;23.42;;;;;;;12.69;100.00;101931.16;5058409;28;20071;-88
2022/09/11 01:32:30;;;;;;;34.45;20.25;;;;;;;12.67;100.00;101931.28;5076029;28;20120;-88
2022/09/11 01:35:07;;;;;;;41.28;22.90;;;;;;;12.64;100.00;101933.34;5076270;28;20121;-88
2022/09/11 01:37:55;;;;;;;48.55;23.90;;;;;;;12.59;100.00;101939.06;5076420;28;20028;-88
2022/09/11 01:40:38;;;;;;;50.42;25.17;;;;;;;12.55;100.00;101936.75;5058249;28;20043;-88
2022/09/11 01:43:11;;;;;;;42.28;23.85;;;;;;;12.52;100.00;101929.84;5076654;28;20024;-87
2022/09/11 01:45:40;;;;;;;33.47;20.33;;;;;;;12.49;100.00;101930.09;5076172;28;20039;-87
2022/09/11 01:48:07;;;;;;;28.98;17.23;;;;;;;12.41;100.00;101925.38;5057141;28;20128;-88
2022/09/11 01:50:36;;;;;;;26.85;17.27;;;;;;;12.37;100.00;101933.78;5075244;28;20055;-87
2022/09/11 01:53:05;;;;;;;42.78;23.08;;;;;;;12.33;100.00;101934.03;5075382;28;20036;-87
2022/09/11 01:55:35;;;;;;;37.85;21.65;;;;;;;12.33;100.00;101935.81;5075446;28;20033;-87
2022/09/11 01:58:12;;;;;;;35.08;20.65;;;;;;;12.33;100.00;101935.81;5075641;28;20479;-87
2022/09/11 02:00:39;;;;;;;34.05;20.08;;;;;;;12.29;100.00;101935.22;5074945;28;20035;-87
2022/09/11 02:03:21;;;;;;;24.15;15.32;;;;;;;12.22;100.00;101942.03;5075193;28;20032;-88
2022/09/11 02:05:56;;;;;;;35.38;19.52;;;;;;;12.21;100.00;101943.03;5075187;28;20522;-87
2022/09/11 02:08:39;;;;;;;28.10;17.15;;;;;;;12.16;100.00;101937.19;5075378;28;20033;-87
2022/09/11 02:11:08;;;;;;;27.95;16.48;;;;;;;12.13;100.00;101948.09;5074706;28;20392;-87
2022/09/11 02:13:38;;;;;;;33.22;18.67;;;;;;;12.08;100.00;101943.13;5075108;28;20031;-86
2022/09/11 02:16:18;;;;;;;40.70;23.00;;;;;;;12.06;100.00;101955.75;5075343;28;20032;-86
2022/09/11 02:19:02;;;;;;;36.60;20.17;;;;;;;12.04;100.00;101944.34;5074697;28;20395;-87
2022/09/11 02:21:29;;;;;;;26.98;17.05;;;;;;;11.99;100.00;101950.06;5075078;28;20025;-87
2022/09/11 02:23:55;;;;;;;30.17;18.02;;;;;;;11.93;100.00;101953.19;5075394;28;20037;-88
2022/09/11 02:26:24;;;;;;;23.38;14.32;;;;;;;11.90;100.00;101947.25;5074524;28;20469;-87
2022/09/11 02:28:51;;;;;;;22.85;14.15;;;;;;;11.88;100.00;101958.00;5074930;28;20120;-87
2022/09/11 02:31:18;;;;;;;19.55;12.18;;;;;;;11.84;100.00;101953.91;5074492;28;20040;-86
2022/09/11 02:33:44;;;;;;;19.80;13.30;;;;;;;11.79;100.00;101948.94;5074576;28;20098;-86
2022/09/11 02:36:10;;;;;;;39.70;20.65;;;;;;;11.74;100.00;101948.44;5074170;28;20504;-88
2022/09/11 02:38:51;;;;;;;19.42;12.20;;;;;;;11.72;100.00;101949.50;5056529;28;20050;-88
2022/09/11 02:41:22;;;;;;;41.83;22.02;;;;;;;11.72;100.00;101949.50;5074161;28;20029;-87
2022/09/11 02:44:07;;;;;;;54.42;26.10;;;;;;;11.75;100.00;101950.13;5074872;28;20103;-87
2022/09/11 02:46:48;;;;;;;42.90;22.88;;;;;;;11.73;100.00;101954.72;5074804;28;20032;-86
2022/09/11 02:49:34;;;;;;;37.28;20.15;;;;;;;11.74;100.00;101945.75;5074253;28;20028;-87
2022/09/11 02:52:19;;;;;;;33.78;18.48;;;;;;;11.64;100.00;101948.31;5074410;28;20460;-86
2022/09/11 02:54:54;;;;;;;24.25;15.63;;;;;;;11.60;100.00;101957.50;5073814;28;20472;-87
2022/09/11 02:57:33;;;;;;;33.97;18.20;;;;;;;11.57;100.00;101963.06;5073716;28;20032;-87
2022/09/11 03:00:07;;;;;;;67.57;28.95;;;;;;;11.61;100.00;101967.22;5074006;28;20047;-86
2022/09/11 03:02:37;;;;;;;45.65;24.55;;;;;;;11.63;100.00;101964.41;5074198;28;20106;-87
2022/09/11 03:05:04;;;;;;;57.40;25.90;;;;;;;11.61;100.00;101969.00;5074175;28;20028;-86
2022/09/11 03:07:29;;;;;;;35.97;20.30;;;;;;;11.58;100.00;101961.25;5073712;28;20031;-86
2022/09/11 03:09:55;;;;;;;29.90;17.98;;;;;;;11.49;100.00;101969.94;5073974;28;20028;-86
2022/09/11 03:12:20;;;;;;;31.25;18.80;;;;;;;11.44;100.00;101959.66;5073749;28;20032;-86
2022/09/11 03:14:47;;;;;;;27.55;16.15;;;;;;;11.41;100.00;101965.22;5073565;28;20090;-85
2022/09/11 03:17:12;;;;;;;22.08;14.07;;;;;;;11.35;100.00;101971.84;5073447;28;20040;-86
2022/09/11 03:19:38;;;;;;;31.75;17.33;;;;;;;11.31;100.00;101965.06;5073304;28;20063;-85
2022/09/11 03:22:03;;;;;;;38.42;20.73;;;;;;;11.35;100.00;101961.19;5055776;28;20490;-85
2022/09/11 03:24:29;;;;;;;30.67;17.40;;;;;;;11.35;100.00;101965.69;5073499;28;20079;-86
2022/09/11 03:26:54;;;;;;;33.95;18.15;;;;;;;11.33;100.00;101960.47;5073188;28;20032;-86
2022/09/11 03:29:20;;;;;;;65.72;27.23;;;;;;;11.37;100.00;101955.75;5074030;28;20036;-86
2022/09/11 03:31:46;;;;;;;36.88;19.13;;;;;;;11.35;100.00;101960.34;5073136;28;20139;-85
2022/09/11 03:34:12;;;;;;;26.80;15.45;;;;;;;11.29;100.00;101956.34;5073211;28;20090;-85
2022/09/11 03:36:37;;;;;;;40.92;20.38;;;;;;;11.27;100.00;101963.56;5073108;28;20036;-86
2022/09/11 03:39:03;;;;;;;27.85;15.57;;;;;;;11.26;100.00;101957.41;5073733;28;20032;-86
2022/09/11 03:41:28;;;;;;;41.22;20.08;;;;;;;11.24;100.00;101956.69;5038975;28;20029;-86
2022/09/11 03:43:54;;;;;;;53.67;24.70;;;;;;;11.29;100.00;101961.66;5055553;28;20468;-87
2022/09/11 03:46:19;;;;;;;35.25;18.92;;;;;;;11.27;100.00;101964.44;5073477;28;20028;-86
2022/09/11 03:48:45;;;;;;;42.28;22.25;;;;;;;11.26;100.00;101962.75;5073272;28;20124;-86
2022/09/11 03:51:13;;;;;;;43.28;22.13;;;;;;;11.26;100.00;101967.22;5055076;28;20097;-86
2022/09/11 03:53:39;;;;;;;52.92;24.77;;;;;;;11.27;100.00;101966.25;5055313;28;20033;-87
2022/09/11 03:56:05;;;;;;;58.50;26.05;;;;;;;11.28;100.00;101968.78;5073278;28;20052;-86
2022/09/11 03:58:30;;;;;;;53.15;25.52;;;;;;;11.26;100.00;101961.91;5055845;28;20043;-87
2022/09/11 04:00:56;;;;;;;35.00;18.48;;;;;;;11.22;100.00;101958.59;5055096;28;20032;-86
2022/09/11 04:03:21;;;;;;;31.27;16.98;;;;;;;11.17;100.00;101958.13;5073051;28;20464;-86
2022/09/11 04:06:01;;;;;;;51.25;24.60;;;;;;;11.14;100.00;101963.66;5055224;28;20529;-87
2022/09/11 04:08:27;;;;;;;52.17;23.52;;;;;;;11.17;100.00;101963.44;5072988;28;20094;-87
2022/09/11 04:11:04;;;;;;;38.08;18.67;;;;;;;11.16;100.00;101969.72;5073304;28;20028;-87
2022/09/11 04:13:32;;;;;;;35.53;18.05;;;;;;;11.11;100.00;101967.41;5073338;28;20119;-87
2022/09/11 04:16:02;;;;;;;25.65;14.57;;;;;;;11.04;100.00;101960.84;5072822;28;20032;-86
2022/09/11 04:18:29;;;;;;;32.65;17.58;;;;;;;11.01;100.00;101969.06;5054907;28;20041;-87
2022/09/11 04:20:54;;;;;;;32.38;17.08;;;;;;;11.04;100.00;101976.81;5038567;28;20043;-87
2022/09/11 04:23:20;;;;;;;40.38;20.00;;;;;;;11.03;100.00;101976.94;5072936;28;20032;-86
2022/09/11 04:25:46;;;;;;;31.17;16.90;;;;;;;11.01;100.00;101979.72;5038519;28;20559;-86
2022/09/11 04:28:12;;;;;;;49.00;22.63;;;;;;;10.98;100.00;101979.94;5054811;28;20269;-86
2022/09/11 04:30:38;;;;;;;50.65;24.30;;;;;;;11.01;100.00;101977.03;5054965;28;20044;-86
2022/09/11 04:33:05;;;;;;;37.05;18.88;;;;;;;11.04;100.00;101979.47;5073180;28;20037;-86
2022/09/11 04:35:31;;;;;;;67.88;27.48;;;;;;;11.10;100.00;101980.84;5055783;28;20025;-86
2022/09/11 04:37:57;;;;;;;44.53;21.95;;;;;;;11.09;100.00;101980.00;5077058;28;20033;-87
2022/09/11 04:40:23;;;;;;;35.22;17.70;;;;;;;11.04;100.00;101981.31;5077082;28;20090;-86
2022/09/11 04:42:48;;;;;;;27.45;15.65;;;;;;;10.94;100.00;101992.66;5042443;28;20055;-86
2022/09/11 04:45:15;;;;;;;47.13;22.50;;;;;;;10.89;100.00;101989.44;5058820;28;20117;-86
2022/09/11 04:47:40;;;;;;;34.88;18.08;;;;;;;10.88;100.00;101990.44;5059129;28;20039;-86
2022/09/11 04:50:06;;;;;;;55.88;23.88;;;;;;;10.85;100.00;101989.78;5076248;28;20032;-86
2022/09/11 04:52:33;;;;;;;56.97;24.75;;;;;;;10.88;100.00;101994.91;5058461;28;20121;-86
2022/09/11 04:55:00;;;;;;;52.63;24.20;;;;;;;10.88;100.00;101995.75;5058560;28;20032;-86
2022/09/11 04:57:28;;;;;;;46.17;22.73;;;;;;;10.89;100.00;102005.44;5058951;28;20068;-87
2022/09/11 04:59:54;;;;;;;47.80;22.90;;;;;;;10.89;100.00;102004.59;5076487;28;20032;-87
2022/09/11 05:02:20;;;;;;;42.67;20.73;;;;;;;10.88;100.00;102005.53;5042170;28;20044;-87
2022/09/11 05:04:49;;;;;;;51.72;24.30;;;;;;;10.85;100.00;102009.31;5058136;28;20036;-87
2022/09/11 05:07:14;;;;;;;62.88;26.88;;;;;;;10.85;100.00;102019.97;5076797;28;20047;-87
2022/09/11 05:09:40;;;;;;;68.78;27.58;;;;;;;10.87;100.00;102023.34;5058915;28;20059;-87
2022/09/11 05:12:05;;;;;;;67.15;27.52;;;;;;;10.89;100.00;102017.91;5058492;28;20231;-87
2022/09/11 05:14:31;;;;;;;54.53;25.00;;;;;;;10.89;100.00;102025.88;5058810;28;20443;-86
2022/09/11 05:16:57;;;;;;;37.05;19.33;;;;;;;10.86;100.00;102024.28;5076221;28;20520;-86
2022/09/11 05:19:24;;;;;;;39.75;19.30;;;;;;;10.86;100.00;102026.13;5076142;28;20029;-86
2022/09/11 05:21:49;;;;;;;44.05;21.38;;;;;;;10.85;100.00;102025.28;5076234;28;20058;-86
2022/09/11 05:24:15;;;;;;;26.77;14.57;;;;;;;10.84;100.00;102036.88;5075716;28;20055;-86
2022/09/11 05:26:41;;;;;;;35.95;18.10;;;;;;;10.82;100.00;102032.63;5075687;28;20039;-87
2022/09/11 05:29:12;;;;;;;37.45;18.67;;;;;;;10.83;100.00;102031.66;5057667;28;20042;-86
2022/09/11 05:31:38;;;;;;;36.47;17.15;;;;;;;10.83;100.00;102034.34;5076328;28;20028;-86
2022/09/11 05:34:04;;;;;;;35.60;18.90;;;;;;;10.85;100.00;102038.59;5057740;28;20033;-86
2022/09/11 05:36:30;;;;;;;39.22;19.10;;;;;;;10.90;100.00;102040.91;5058610;28;20067;-86
2022/09/11 05:38:56;;;;;;;54.03;24.65;;;;;;;10.95;100.00;102044.09;5057784;28;20052;-86
2022/09/11 05:41:23;;;;;;;53.63;23.83;;;;;;;11.00;100.00;102041.94;5057803;28;20167;-86
2022/09/11 05:43:50;;;;;;;58.78;25.77;;;;;;;11.06;100.00;102045.94;5075730;28;20028;-86
2022/09/11 05:46:17;;;;;;;54.03;24.38;;;;;;;11.06;100.00;102043.28;5057658;28;20052;-86
2022/09/11 05:48:42;;;;;;;49.58;23.13;;;;;;;11.06;100.00;102040.63;5058373;28;20033;-86
2022/09/11 05:51:18;;;;;;;71.97;27.98;;;;;;;11.09;100.00;102030.63;5058095;28;20362;-86
2022/09/11 05:53:44;;;;;;;73.60;27.63;;;;;;;11.17;100.00;102035.38;5075556;28;20027;-86
2022/09/11 05:56:16;;;;;;;63.17;26.17;;;;;;;11.19;100.00;102036.09;5041314;28;20043;-86
2022/09/11 05:58:42;;;;;;;73.30;28.35;;;;;;;11.25;100.00;102046.28;5076049;28;20032;-85
2022/09/11 06:01:13;;;;;;;61.85;26.77;;;;;;;11.27;100.00;102052.38;5058317;28;20032;-86
2022/09/11 06:03:39;;;;;;;61.10;25.35;;;;;;;11.28;100.00;102046.06;5057283;28;20060;-85
2022/09/11 06:06:11;;;;;;;53.83;24.05;;;;;;;11.28;100.00;102046.06;5075022;28;20125;-86
2022/09/11 06:08:37;;;;;;;41.55;20.15;;;;;;;11.33;100.00;102047.53;5074904;28;20055;-86
2022/09/11 06:11:08;;;;;;;59.30;24.77;;;;;;;11.38;100.00;102040.91;5075632;28;20068;-85
2022/09/11 06:13:37;;;;;;;59.97;26.07;;;;;;;11.46;100.00;102048.31;5075910;28;20052;-86
2022/09/11 06:16:04;;;;;;;59.72;26.13;;;;;;;11.53;100.00;102052.22;5075095;28;20025;-86
2022/09/11 06:18:31;;;;;;;57.75;25.13;;;;;;;11.57;100.00;102053.69;5075289;28;20028;-87
2022/09/11 06:21:01;;;;;;;56.92;24.55;;;;;;;11.64;100.00;102048.75;5074660;28;20039;-86
2022/09/11 06:23:27;;;;;;;65.82;26.95;;;;;;;11.70;100.00;102050.94;5075229;28;20028;-86
2022/09/11 06:25:53;;;;;;;57.85;24.10;;;;;;;11.79;100.00;102055.59;5056887;28;20025;-86
2022/09/11 06:28:22;;;;;;;55.75;26.27;;;;;;;11.88;100.00;102048.66;5056608;28;20508;-85
2022/09/11 06:30:51;;;;;;;65.00;27.35;;;;;;;11.95;100.00;102049.09;5056539;28;20024;-85
2022/09/11 06:33:20;;;;;;;74.45;27.85;;;;;;;12.05;100.00;102051.91;5074796;28;20070;-85
2022/09/11 06:36:06;;;;;;;68.90;28.48;;;;;;;12.13;100.00;102049.50;5056602;28;20052;-86
2022/09/11 06:38:32;;;;;;;66.70;27.52;;;;;;;12.24;100.00;102051.31;5074729;28;20032;-86
2022/09/11 06:41:03;;;;;;;74.95;29.13;;;;;;;12.34;100.00;102045.13;5039993;28;20032;-86
2022/09/11 06:43:30;;;;;;;68.30;27.23;;;;;;;12.42;100.00;102047.22;5056939;28;20036;-85
2022/09/11 06:46:03;;;;;;;69.30;27.88;;;;;;;12.50;100.00;102043.91;5074316;28;20115;-85
2022/09/11 06:48:29;;;;;;;68.03;28.23;;;;;;;12.59;100.00;102040.50;5074333;28;20043;-86
2022/09/11 06:50:56;;;;;;;65.25;27.20;;;;;;;12.69;100.00;102049.47;5073740;28;20119;-86
2022/09/11 06:53:22;;;;;;;74.30;29.13;;;;;;;12.82;100.00;102053.81;5074286;28;20060;-86
2022/09/11 06:55:47;;;;;;;67.18;28.88;;;;;;;12.93;100.00;102045.78;5074325;28;20479;-87
2022/09/11 06:58:13;;;;;;;70.90;29.25;;;;;;;13.05;100.00;102052.81;5055703;28;20362;-86
2022/09/11 07:00:39;;;;;;;71.63;29.85;;;;;;;13.18;100.00;102059.81;5074342;28;20419;-86
2022/09/11 07:03:04;;;;;;;82.13;32.00;;;;;;;13.28;100.00;102047.38;5074119;28;20092;-86
2022/09/11 07:05:30;;;;;;;86.53;33.10;;;;;;;13.41;100.00;102049.91;5056129;28;20472;-87
2022/09/11 07:07:56;;;;;;;105.15;37.83;;;;;;;13.55;100.00;102059.44;5056001;28;20123;-85
2022/09/11 07:10:22;;;;;;;111.88;39.92;;;;;;;13.68;100.00;102062.78;5074428;28;20120;-85
2022/09/11 07:12:48;;;;;;;105.93;38.92;;;;;;;13.82;100.00;102066.97;5073826;28;20103;-86
2022/09/11 07:15:13;;;;;;;90.20;35.10;;;;;;;13.96;100.00;102064.94;5055892;28;20052;-86
2022/09/11 07:17:39;;;;;;;101.07;39.80;;;;;;;14.08;100.00;102078.13;5074255;28;20047;-85
2022/09/11 07:20:07;;;;;;;96.85;38.60;;;;;;;14.19;100.00;102081.69;5073540;28;20032;-86
2022/09/11 07:22:33;;;;;;;91.68;36.58;;;;;;;14.27;100.00;102087.22;5056509;28;20084;-87
2022/09/11 07:24:59;;;;;;;76.72;35.00;;;;;;;14.36;100.00;102094.47;5056573;28;20071;-86
2022/09/11 07:27:26;;;;;;;85.43;35.75;;;;;;;14.40;100.00;102106.59;5073430;28;20087;-86
2022/09/11 07:29:51;;;;;;;80.72;34.75;;;;;;;14.47;100.00;102101.56;5055602;28;20033;-86
2022/09/11 07:32:16;;;;;;;89.53;36.28;;;;;;;14.57;100.00;102096.25;5055566;28;20036;-86
2022/09/11 07:34:42;;;;;;;84.63;35.95;;;;;;;14.68;100.00;102090.00;5039602;28;20465;-87
2022/09/11 07:37:07;;;;;;;83.30;35.53;;;;;;;14.78;100.00;102098.91;5055781;28;20131;-86
2022/09/11 07:39:33;;;;;;;81.15;34.40;;;;;;;14.86;100.00;102096.38;5055603;28;20469;-86
2022/09/11 07:41:58;;;;;;;75.05;33.95;;;;;;;14.96;100.00;102101.78;5073297;28;20032;-86
2022/09/11 07:44:23;;;;;;;55.47;27.15;;;;;;;15.05;100.00;102106.31;5073600;28;20048;-86
2022/09/11 07:46:50;;;;;;;45.50;24.23;;;;;;;15.12;100.00;102096.75;5055355;28;20033;-86
2022/09/11 07:49:16;;;;;;;33.22;18.83;;;;;;;15.14;100.00;102093.91;5055778;28;20040;-86
2022/09/11 07:51:42;;;;;;;46.40;23.63;;;;;;;15.20;100.00;102092.50;5055435;28;20094;-85
2022/09/11 07:54:11;;;;;;;40.38;21.92;;;;;;;15.29;100.00;102089.84;5073223;28;20468;-85
2022/09/11 07:56:36;;;;;;;29.77;15.60;;;;;;;15.37;100.00;102094.50;5073116;28;20483;-84
2022/09/11 07:59:06;;;;;;;23.52;12.20;;;;;;;15.43;100.00;102085.88;5073055;28;20115;-83
2022/09/11 08:01:32;;;;;;;23.13;12.55;;;;;;;15.37;100.00;102091.81;5073694;28;20465;-82
2022/09/11 08:04:04;;;;;;;26.50;16.13;;;;;;;15.43;100.00;102096.63;5073060;28;20131;-84
2022/09/11 08:06:32;;;;;;;34.70;20.73;;;;;;;15.55;100.00;102105.38;5054863;28;20031;-84
2022/09/11 08:09:00;;;;;;;43.63;24.23;;;;;;;15.81;100.00;102092.28;5054919;28;20031;-87
2022/09/11 08:11:28;;;;;;;25.05;14.27;;;;;;;16.44;100.00;102098.91;5055315;28;20028;-87
2022/09/11 08:13:54;;;;;;;22.05;12.80;;;;;;;16.86;100.00;102105.66;5073265;28;20070;-89
2022/09/11 08:16:22;;;;;;;18.73;10.15;;;;;;;17.24;100.00;102104.59;5055755;28;20162;-93
2022/09/11 08:18:48;;;;;;;10.98;6.95;;;;;;;17.52;100.00;102103.69;5055070;28;20029;-87
2022/09/11 08:21:14;;;;;;;10.52;5.50;;;;;;;17.75;100.00;102102.19;5073057;28;20039;-87
2022/09/11 08:23:42;;;;;;;10.15;6.35;;;;;;;17.80;100.00;102099.03;5072757;28;20028;-87
2022/09/11 08:26:11;;;;;;;9.63;5.47;;;;;;;17.89;100.00;102098.13;5072667;28;20111;-90
2022/09/11 08:28:38;;;;;;;9.38;6.30;;;;;;;17.97;100.00;102098.19;5073422;28;20083;-90
2022/09/11 08:31:05;;;;;;;9.48;5.80;;;;;;;18.16;100.00;102098.97;5072837;28;20032;-90
2022/09/11 08:33:34;;;;;;;4.05;3.70;;;;;;;18.29;100.00;102098.56;5073265;28;20073;-91
2022/09/11 08:36:03;;;;;;;7.70;3.70;;;;;;;18.48;100.00;102106.41;5055137;28;20031;-91
2022/09/11 08:38:29;;;;;;;4.95;3.22;;;;;;;18.89;100.00;102107.63;5072555;28;20040;-92
2022/09/11 08:41:08;;;;;;;3.55;2.80;;;;;;;19.32;100.00;102106.56;5072469;28;20431;-91
2022/09/11 08:43:37;;;;;;;6.53;2.90;;;;;;;19.77;100.00;102109.78;5073713;28;20036;-94
2022/09/11 08:46:08;;;;;;;5.57;2.90;;;;;;;20.38;92.56;102106.69;5073445;28;20554;-93
2022/09/11 08:49:09;;;;;;;6.10;2.65;;;;;;;21.38;83.01;102110.59;5072680;28;20032;-86
2022/09/11 08:51:35;;;;;;;8.45;3.22;;;;;;;22.44;80.78;102108.03;4990903;28;20045;-87
2022/09/11 08:54:02;;;;;;;7.45;3.15;;;;;;;23.44;67.98;102117.38;5056183;28;20408;-87
2022/09/11 08:56:29;;;;;;;6.95;2.95;;;;;;;24.46;71.36;102115.25;5072937;28;20115;-86
2022/09/11 08:59:04;;;;;;;5.60;2.42;;;;;;;25.33;63.34;102126.50;5072732;28;20143;-85
2022/09/11 09:01:46;;;;;;;4.32;2.75;;;;;;;25.93;55.98;102114.81;5072543;28;20040;-87
2022/09/11 09:04:44;;;;;;;4.75;2.47;;;;;;;26.47;55.79;102110.09;5073516;28;20037;-88
2022/09/11 09:07:16;;;;;;;5.88;2.85;;;;;;;27.27;54.60;102109.75;5044561;28;20041;-89
2022/09/11 09:09:49;;;;;;;5.93;2.92;;;;;;;27.72;48.76;102112.41;5055053;28;20032;-91
2022/09/11 09:12:52;;;;;;;7.40;3.00;;;;;;;27.71;47.20;102110.72;5072803;28;20029;-88
2022/09/11 09:15:41;;;;;;;5.30;2.70;;;;;;;28.10;49.04;102110.59;5072936;28;20058;-87
2022/09/11 09:18:14;;;;;;;7.32;3.00;;;;;;;28.52;46.75;102115.41;5061514;28;20496;-91
2022/09/11 09:20:45;;;;;;;4.22;3.00;;;;;;;28.44;46.14;102111.91;5073196;28;20029;-89
2022/09/11 09:23:24;;;;;;;6.10;3.10;;;;;;;28.69;47.70;102108.25;5075699;28;20060;-88
2022/09/11 09:25:59;;;;;;;6.70;2.83;;;;;;;27.59;46.63;102117.97;5075617;28;20021;-88
2022/09/11 09:28:45;;;;;;;8.25;3.13;;;;;;;26.84;51.84;102113.16;5041033;28;20409;-88
2022/09/11 09:31:37;;;;;;;3.75;2.35;;;;;;;28.00;50.72;102127.53;5075458;28;20024;-87
2022/09/11 09:34:08;;;;;;;3.58;2.20;;;;;;;28.98;48.01;102117.56;5075613;28;20036;-87
2022/09/11 09:37:03;;;;;;;5.68;2.80;;;;;;;29.30;44.14;102114.59;5076041;28;20074;-90
2022/09/11 09:39:29;;;;;;;4.65;2.70;;;;;;;29.96;44.07;102117.34;5057795;28;20028;-92
2022/09/11 09:42:13;;;;;;;5.05;2.65;;;;;;;29.78;43.66;102118.25;5075379;28;20040;-90
2022/09/11 09:45:36;;;;;;;5.75;2.70;;;;;;;30.02;43.92;102121.03;5075924;28;20021;-91
2022/09/11 09:48:02;;;;;;;6.82;2.35;;;;;;;30.66;43.47;102120.25;5075959;28;20103;-90
2022/09/11 09:50:37;;;;;;;8.13;3.65;;;;;;;30.23;41.71;102122.34;5057348;28;20032;-90
2022/09/11 09:53:29;;;;;;;5.90;2.80;;;;;;;30.35;40.66;102133.28;5075814;28;20116;-84
2022/09/11 09:56:01;;;;;;;6.18;2.28;;;;;;;29.88;40.74;102121.28;5075179;28;20095;-83
2022/09/11 09:58:33;;;;;;;5.85;2.45;;;;;;;30.22;41.41;102113.28;5075611;28;20060;-84
2022/09/11 10:00:58;;;;;;;4.22;2.60;;;;;;;30.24;40.32;102115.78;5075293;28;20028;-85
2022/09/11 10:03:24;;;;;;;4.53;2.25;;;;;;;30.07;42.27;102111.03;5074897;28;20035;-84
2022/09/11 10:05:53;;;;;;;6.38;2.40;;;;;;;30.63;40.78;102107.00;5057029;28;20025;-86
2022/09/11 10:08:55;;;;;;;7.55;2.63;;;;;;;30.45;38.50;102106.09;5075110;28;20514;-85
2022/09/11 10:11:27;;;;;;;4.40;2.60;;;;;;;30.69;37.95;102109.59;5032286;28;20442;-84
2022/09/11 10:13:54;;;;;;;8.27;2.60;;;;;;;30.75;40.69;102116.03;5073725;28;20438;-84
2022/09/11 10:16:24;;;;;;;5.03;2.22;;;;;;;30.51;40.37;102107.88;5074877;28;20037;-85
2022/09/11 10:18:50;;;;;;;5.03;2.00;;;;;;;30.80;38.30;102107.06;5075172;28;20020;-83
2022/09/11 10:21:36;;;;;;;4.90;2.00;;;;;;;31.17;40.05;102106.69;5074873;28;20028;-83
2022/09/11 10:24:21;;;;;;;3.38;2.00;;;;;;;30.76;38.26;102104.81;5075035;28;20028;-85
2022/09/11 10:26:50;;;;;;;3.92;2.00;;;;;;;30.82;38.62;102105.75;5074908;28;20112;-83
2022/09/11 10:29:25;;;;;;;4.00;2.10;;;;;;;30.67;39.30;102108.19;5075706;28;20048;-84
2022/09/11 10:31:54;;;;;;;6.30;2.08;;;;;;;30.87;37.12;102103.13;5074654;28;20040;-84
2022/09/11 10:34:22;;;;;;;5.97;2.30;;;;;;;30.97;37.92;102101.63;5073327;28;20063;-84
2022/09/11 10:37:22;;;;;;;8.20;2.20;;;;;;;31.14;38.45;102099.75;5074906;28;20025;-84
2022/09/11 10:39:48;;;;;;;4.53;1.98;;;;;;;30.77;38.07;102092.75;5074476;28;20025;-84
2022/09/11 10:42:24;;;;;;;4.78;2.33;;;;;;;31.19;36.51;102094.38;5074521;28;20032;-83
2022/09/11 10:44:51;;;;;;;3.60;1.95;;;;;;;30.90;38.97;102088.88;5074590;28;20035;-82
2022/09/11 10:47:20;;;;;;;3.85;2.00;;;;;;;30.87;38.89;102088.53;5074217;28;20357;-84
2022/09/11 10:50:43;;;;;;;5.07;2.10;;;;;;;30.21;40.98;102088.81;5074108;28;20032;-83
2022/09/11 10:53:22;;;;;;;2.60;1.80;;;;;;;27.99;43.78;102089.47;5036438;28;20319;-83
2022/09/11 10:55:56;;;;;;;6.00;2.20;;;;;;;26.57;47.65;102088.66;5074358;28;20380;-83
2022/09/11 10:58:28;;;;;;;4.05;2.30;;;;;;;25.48;51.16;102085.44;5074278;28;20028;-85
2022/09/11 11:00:53;;;;;;;3.90;2.00;;;;;;;24.21;54.67;102083.09;5074457;28;20028;-83
2022/09/11 11:03:25;;;;;;;5.05;2.03;;;;;;;23.53;59.70;102094.47;5074631;28;20032;-85
2022/09/11 11:06:54;;;;;;;3.83;2.10;;;;;;;22.88;63.92;102101.69;5074377;28;20025;-84
2022/09/11 11:10:02;;;;;;;3.75;1.90;;;;;;;22.38;62.54;102097.91;4957141;28;20039;-82
2022/09/11 11:12:55;;;;;;;5.07;2.05;;;;;;;21.99;68.85;102087.13;4972798;28;20182;-82
2022/09/11 11:15:42;;;;;;;4.22;1.98;;;;;;;21.65;71.08;102087.59;4973264;28;20045;-85
2022/09/11 11:18:46;;;;;;;5.78;2.10;;;;;;;21.47;71.07;102090.59;5055629;28;20105;-87
2022/09/11 11:35:11;;;;;;;8.00;1.60;;;;;;;23.80;57.21;102091.16;4992088;28;20526;-85
2022/09/11 11:37:41;;;;;;;3.35;1.42;;;;;;;25.86;50.72;102072.03;4978621;28;20069;-86
2022/09/11 11:40:22;;;;;;;4.22;1.60;;;;;;;27.14;47.91;102082.53;4995499;28;20040;-84